sensor_id;sensor_type;location;lat;lon;timestamp;temperature;humidity
12089;DHT22;6107;49.078;8.578;2023-04-29T00:00:10;14.60;99.90
12089;DHT22;6107;49.078;8.578;2023-04-29T00:02:36;14.50;99.90
12089;DHT22;6107;49.078;8.578;2023-04-29T00:05:02;14.40;99.90
12089;DHT22;6107;49.078;8.578;2023-04-29T00:07:29;14.30;99.90
12089;DHT22;6107;49.078;8.578;2023-04-29T00:09:57;14.20;99.90
12089;DHT22;6107;49.078;8.578;2023-04-29T00:12:22;14.10;99.90
12089;DHT22;6107;49.078;8.578;2023-04-29T00:14:48;14.00;99.90
12089;DHT22;6107;49.078;8.578;2023-04-29T00:17:13;13.70;99.90
12089;DHT22;6107;49.078;8.578;2023-04-29T00:19:39;13.90;99.90
12089;DHT22;6107;49.078;8.578;2023-04-29T00:22:05;13.90;99.90
12089;DHT22;6107;49.078;8.578;2023-04-29T00:24:30;13.80;99.90
12089;DHT22;6107;49.078;8.578;2023-04-29T00:26:56;13.50;99.90
12089;DHT22;6107;49.078;8.578;2023-04-29T00:29:21;13.40;99.90
12089;DHT22;6107;49.078;8.578;2023-04-29T00:31:48;13.10;99.90
12089;DHT22;6107;49.078;8.578;2023-04-29T00:34:13;13.00;99.90
12089;DHT22;6107;49.078;8.578;2023-04-29T00:36:39;13.00;99.90
12089;DHT22;6107;49.078;8.578;2023-04-29T00:39:04;13.00;99.90
12089;DHT22;6107;49.078;8.578;2023-04-29T00:41:30;13.10;99.90
12089;DHT22;6107;49.078;8.578;2023-04-29T00:43:56;13.10;99.90
12089;DHT22;6107;49.078;8.578;2023-04-29T00:46:22;12.60;99.90
12089;DHT22;6107;49.078;8.578;2023-04-29T00:48:47;12.20;99.90
12089;DHT22;6107;49.078;8.578;2023-04-29T00:51:13;12.20;99.90
12089;DHT22;6107;49.078;8.578;2023-04-29T00:53:41;12.10;99.90
12089;DHT22;6107;49.078;8.578;2023-04-29T00:56:07;12.20;99.90
12089;DHT22;6107;49.078;8.578;2023-04-29T00:58:33;12.20;99.90
12089;DHT22;6107;49.078;8.578;2023-04-29T01:01:00;12.20;99.90
12089;DHT22;6107;49.078;8.578;2023-04-29T01:03:29;12.00;99.90
12089;DHT22;6107;49.078;8.578;2023-04-29T01:06:26;12.10;99.90
12089;DHT22;6107;49.078;8.578;2023-04-29T01:09:11;12.00;99.90
12089;DHT22;6107;49.078;8.578;2023-04-29T01:14:32;12.10;99.90
12089;DHT22;6107;49.078;8.578;2023-04-29T01:17:07;11.90;99.90
12089;DHT22;6107;49.078;8.578;2023-04-29T01:19:46;12.00;99.90
12089;DHT22;6107;49.078;8.578;2023-04-29T01:22:13;11.80;99.90
12089;DHT22;6107;49.078;8.578;2023-04-29T01:24:39;12.00;99.90
12089;DHT22;6107;49.078;8.578;2023-04-29T01:27:51;11.90;99.90
12089;DHT22;6107;49.078;8.578;2023-04-29T01:33:08;12.00;99.90
12089;DHT22;6107;49.078;8.578;2023-04-29T01:35:44;12.00;99.90
12089;DHT22;6107;49.078;8.578;2023-04-29T01:38:16;11.90;99.90
12089;DHT22;6107;49.078;8.578;2023-04-29T01:41:13;11.80;99.90
12089;DHT22;6107;49.078;8.578;2023-04-29T01:43:40;12.20;99.90
12089;DHT22;6107;49.078;8.578;2023-04-29T01:46:08;12.10;99.90
12089;DHT22;6107;49.078;8.578;2023-04-29T01:48:34;12.20;99.90
12089;DHT22;6107;49.078;8.578;2023-04-29T01:51:01;12.30;99.90
12089;DHT22;6107;49.078;8.578;2023-04-29T01:53:27;12.50;99.90
12089;DHT22;6107;49.078;8.578;2023-04-29T01:55:52;12.70;99.90
12089;DHT22;6107;49.078;8.578;2023-04-29T01:58:18;12.90;99.90
12089;DHT22;6107;49.078;8.578;2023-04-29T02:00:43;12.80;99.90
12089;DHT22;6107;49.078;8.578;2023-04-29T02:03:09;13.00;99.90
12089;DHT22;6107;49.078;8.578;2023-04-29T02:05:34;13.00;99.90
12089;DHT22;6107;49.078;8.578;2023-04-29T02:08:00;13.00;99.90
12089;DHT22;6107;49.078;8.578;2023-04-29T02:10:26;13.00;99.90
12089;DHT22;6107;49.078;8.578;2023-04-29T02:12:52;12.90;99.90
12089;DHT22;6107;49.078;8.578;2023-04-29T02:15:18;13.00;99.90
12089;DHT22;6107;49.078;8.578;2023-04-29T02:17:44;13.00;99.90
12089;DHT22;6107;49.078;8.578;2023-04-29T02:20:10;13.10;99.90
12089;DHT22;6107;49.078;8.578;2023-04-29T02:22:35;13.10;99.90
12089;DHT22;6107;49.078;8.578;2023-04-29T02:25:01;13.10;99.90
12089;DHT22;6107;49.078;8.578;2023-04-29T02:27:26;13.10;99.90
12089;DHT22;6107;49.078;8.578;2023-04-29T02:29:52;13.00;99.90
12089;DHT22;6107;49.078;8.578;2023-04-29T02:32:17;13.00;99.90
12089;DHT22;6107;49.078;8.578;2023-04-29T02:34:45;13.00;99.90
12089;DHT22;6107;49.078;8.578;2023-04-29T02:37:10;13.10;99.90
12089;DHT22;6107;49.078;8.578;2023-04-29T02:39:36;13.20;99.90
12089;DHT22;6107;49.078;8.578;2023-04-29T02:42:01;13.30;99.90
12089;DHT22;6107;49.078;8.578;2023-04-29T02:44:27;13.20;99.90
12089;DHT22;6107;49.078;8.578;2023-04-29T02:46:53;13.20;99.90
12089;DHT22;6107;49.078;8.578;2023-04-29T02:49:18;13.20;99.90
12089;DHT22;6107;49.078;8.578;2023-04-29T02:51:44;13.10;99.90
12089;DHT22;6107;49.078;8.578;2023-04-29T02:54:10;13.10;99.90
12089;DHT22;6107;49.078;8.578;2023-04-29T02:56:36;13.20;99.90
12089;DHT22;6107;49.078;8.578;2023-04-29T02:59:01;13.10;99.90
12089;DHT22;6107;49.078;8.578;2023-04-29T03:01:27;13.10;99.90
12089;DHT22;6107;49.078;8.578;2023-04-29T03:03:53;13.10;99.90
12089;DHT22;6107;49.078;8.578;2023-04-29T03:06:19;13.10;99.90
12089;DHT22;6107;49.078;8.578;2023-04-29T03:08:45;13.20;99.90
12089;DHT22;6107;49.078;8.578;2023-04-29T03:11:10;13.00;99.90
12089;DHT22;6107;49.078;8.578;2023-04-29T03:13:36;13.10;99.90
12089;DHT22;6107;49.078;8.578;2023-04-29T03:16:03;13.20;99.90
12089;DHT22;6107;49.078;8.578;2023-04-29T03:18:28;13.10;99.90
12089;DHT22;6107;49.078;8.578;2023-04-29T03:20:54;13.20;99.90
12089;DHT22;6107;49.078;8.578;2023-04-29T03:23:19;13.20;99.90
12089;DHT22;6107;49.078;8.578;2023-04-29T03:25:45;13.10;99.90
12089;DHT22;6107;49.078;8.578;2023-04-29T03:28:10;13.20;99.90
12089;DHT22;6107;49.078;8.578;2023-04-29T03:30:36;13.20;99.90
12089;DHT22;6107;49.078;8.578;2023-04-29T03:33:01;13.20;99.90
12089;DHT22;6107;49.078;8.578;2023-04-29T03:35:27;13.10;99.90
12089;DHT22;6107;49.078;8.578;2023-04-29T03:37:52;13.10;99.90
12089;DHT22;6107;49.078;8.578;2023-04-29T03:40:18;13.10;99.90
12089;DHT22;6107;49.078;8.578;2023-04-29T03:42:43;13.10;99.90
12089;DHT22;6107;49.078;8.578;2023-04-29T03:45:09;13.10;99.90
12089;DHT22;6107;49.078;8.578;2023-04-29T03:47:37;13.00;99.90
12089;DHT22;6107;49.078;8.578;2023-04-29T03:50:03;13.00;99.90
12089;DHT22;6107;49.078;8.578;2023-04-29T03:52:29;13.10;99.90
12089;DHT22;6107;49.078;8.578;2023-04-29T03:54:54;13.00;99.90
12089;DHT22;6107;49.078;8.578;2023-04-29T03:57:20;13.00;99.90
12089;DHT22;6107;49.078;8.578;2023-04-29T03:59:45;13.00;99.90
12089;DHT22;6107;49.078;8.578;2023-04-29T04:02:15;12.90;99.90
12089;DHT22;6107;49.078;8.578;2023-04-29T04:04:40;12.90;99.90
12089;DHT22;6107;49.078;8.578;2023-04-29T04:07:06;12.90;99.90
12089;DHT22;6107;49.078;8.578;2023-04-29T04:09:32;12.90;99.90
12089;DHT22;6107;49.078;8.578;2023-04-29T04:11:58;12.90;99.90
12089;DHT22;6107;49.078;8.578;2023-04-29T04:14:23;13.00;99.90
12089;DHT22;6107;49.078;8.578;2023-04-29T04:16:49;12.80;99.90
12089;DHT22;6107;49.078;8.578;2023-04-29T04:19:15;12.80;99.90
12089;DHT22;6107;49.078;8.578;2023-04-29T04:21:40;12.70;99.90
12089;DHT22;6107;49.078;8.578;2023-04-29T04:24:06;12.70;99.90
12089;DHT22;6107;49.078;8.578;2023-04-29T04:26:32;12.70;99.90
12089;DHT22;6107;49.078;8.578;2023-04-29T04:28:58;12.70;99.90
12089;DHT22;6107;49.078;8.578;2023-04-29T04:31:23;12.70;99.90
12089;DHT22;6107;49.078;8.578;2023-04-29T04:33:49;12.60;99.90
12089;DHT22;6107;49.078;8.578;2023-04-29T04:36:15;12.70;99.90
12089;DHT22;6107;49.078;8.578;2023-04-29T04:38:40;12.70;99.90
12089;DHT22;6107;49.078;8.578;2023-04-29T04:41:06;12.60;99.90
12089;DHT22;6107;49.078;8.578;2023-04-29T04:43:34;12.70;99.90
12089;DHT22;6107;49.078;8.578;2023-04-29T04:46:09;12.70;99.90
12089;DHT22;6107;49.078;8.578;2023-04-29T04:48:34;12.70;99.90
12089;DHT22;6107;49.078;8.578;2023-04-29T04:51:07;12.60;99.90
12089;DHT22;6107;49.078;8.578;2023-04-29T04:53:33;12.60;99.90
12089;DHT22;6107;49.078;8.578;2023-04-29T04:56:02;12.50;99.90
12089;DHT22;6107;49.078;8.578;2023-04-29T04:58:28;12.50;99.90
12089;DHT22;6107;49.078;8.578;2023-04-29T05:00:55;12.50;99.90
12089;DHT22;6107;49.078;8.578;2023-04-29T05:03:21;12.40;99.90
12089;DHT22;6107;49.078;8.578;2023-04-29T05:06:01;12.50;99.90
12089;DHT22;6107;49.078;8.578;2023-04-29T05:08:26;12.50;99.90
12089;DHT22;6107;49.078;8.578;2023-04-29T05:10:52;12.50;99.90
12089;DHT22;6107;49.078;8.578;2023-04-29T05:13:18;12.60;99.90
12089;DHT22;6107;49.078;8.578;2023-04-29T05:15:44;12.70;99.90
12089;DHT22;6107;49.078;8.578;2023-04-29T05:18:10;12.70;99.90
12089;DHT22;6107;49.078;8.578;2023-04-29T05:20:36;12.70;99.90
12089;DHT22;6107;49.078;8.578;2023-04-29T05:23:02;12.60;99.90
12089;DHT22;6107;49.078;8.578;2023-04-29T05:25:28;12.70;99.90
12089;DHT22;6107;49.078;8.578;2023-04-29T05:27:54;12.60;99.90
12089;DHT22;6107;49.078;8.578;2023-04-29T05:30:20;12.50;99.90
12089;DHT22;6107;49.078;8.578;2023-04-29T05:32:45;12.50;99.90
12089;DHT22;6107;49.078;8.578;2023-04-29T05:35:11;12.60;99.90
12089;DHT22;6107;49.078;8.578;2023-04-29T05:37:37;12.70;99.90
12089;DHT22;6107;49.078;8.578;2023-04-29T05:40:03;12.70;99.90
12089;DHT22;6107;49.078;8.578;2023-04-29T05:42:29;12.70;99.90
12089;DHT22;6107;49.078;8.578;2023-04-29T05:44:54;12.70;99.90
12089;DHT22;6107;49.078;8.578;2023-04-29T05:47:20;12.70;99.90
12089;DHT22;6107;49.078;8.578;2023-04-29T05:49:46;12.80;99.90
12089;DHT22;6107;49.078;8.578;2023-04-29T05:52:11;13.10;99.90
12089;DHT22;6107;49.078;8.578;2023-04-29T05:54:37;12.90;99.90
12089;DHT22;6107;49.078;8.578;2023-04-29T05:57:02;12.80;99.90
12089;DHT22;6107;49.078;8.578;2023-04-29T05:59:29;12.80;99.90
12089;DHT22;6107;49.078;8.578;2023-04-29T06:01:58;12.80;99.90
12089;DHT22;6107;49.078;8.578;2023-04-29T06:04:25;12.80;99.90
12089;DHT22;6107;49.078;8.578;2023-04-29T06:06:55;12.80;99.90
12089;DHT22;6107;49.078;8.578;2023-04-29T06:09:21;12.70;99.90
12089;DHT22;6107;49.078;8.578;2023-04-29T06:11:50;12.80;99.90
12089;DHT22;6107;49.078;8.578;2023-04-29T06:14:15;12.70;99.90
12089;DHT22;6107;49.078;8.578;2023-04-29T06:16:41;12.70;99.90
12089;DHT22;6107;49.078;8.578;2023-04-29T06:19:06;12.70;99.90
12089;DHT22;6107;49.078;8.578;2023-04-29T06:21:32;12.70;99.90
12089;DHT22;6107;49.078;8.578;2023-04-29T06:23:57;12.70;99.90
12089;DHT22;6107;49.078;8.578;2023-04-29T06:26:23;12.70;99.90
12089;DHT22;6107;49.078;8.578;2023-04-29T06:28:49;12.80;99.90
12089;DHT22;6107;49.078;8.578;2023-04-29T06:31:14;12.80;99.90
12089;DHT22;6107;49.078;8.578;2023-04-29T06:33:40;12.80;99.90
12089;DHT22;6107;49.078;8.578;2023-04-29T06:36:06;12.90;99.90
12089;DHT22;6107;49.078;8.578;2023-04-29T06:38:31;13.00;99.90
12089;DHT22;6107;49.078;8.578;2023-04-29T06:40:57;13.00;99.90
12089;DHT22;6107;49.078;8.578;2023-04-29T06:43:25;12.90;99.90
12089;DHT22;6107;49.078;8.578;2023-04-29T06:45:51;12.80;99.90
12089;DHT22;6107;49.078;8.578;2023-04-29T06:48:16;12.90;99.90
12089;DHT22;6107;49.078;8.578;2023-04-29T06:50:56;12.90;99.90
12089;DHT22;6107;49.078;8.578;2023-04-29T06:53:22;12.90;99.90
12089;DHT22;6107;49.078;8.578;2023-04-29T06:55:48;13.00;99.90
12089;DHT22;6107;49.078;8.578;2023-04-29T06:58:15;13.00;99.90
12089;DHT22;6107;49.078;8.578;2023-04-29T07:00:43;13.10;99.90
12089;DHT22;6107;49.078;8.578;2023-04-29T07:03:09;13.10;99.90
12089;DHT22;6107;49.078;8.578;2023-04-29T07:05:35;13.00;99.90
12089;DHT22;6107;49.078;8.578;2023-04-29T07:08:01;13.20;99.90
12089;DHT22;6107;49.078;8.578;2023-04-29T07:10:27;13.40;99.90
12089;DHT22;6107;49.078;8.578;2023-04-29T07:12:53;13.50;99.90
12089;DHT22;6107;49.078;8.578;2023-04-29T07:15:19;13.50;99.90
12089;DHT22;6107;49.078;8.578;2023-04-29T07:17:44;13.40;99.90
12089;DHT22;6107;49.078;8.578;2023-04-29T07:20:10;13.60;99.90
12089;DHT22;6107;49.078;8.578;2023-04-29T07:22:36;13.50;99.90
12089;DHT22;6107;49.078;8.578;2023-04-29T07:25:02;13.60;99.90
12089;DHT22;6107;49.078;8.578;2023-04-29T07:27:27;13.50;99.90
12089;DHT22;6107;49.078;8.578;2023-04-29T07:29:53;13.50;99.90
12089;DHT22;6107;49.078;8.578;2023-04-29T07:32:19;13.50;99.90
12089;DHT22;6107;49.078;8.578;2023-04-29T07:34:45;13.50;99.90
12089;DHT22;6107;49.078;8.578;2023-04-29T07:37:11;13.40;99.90
12089;DHT22;6107;49.078;8.578;2023-04-29T07:39:38;13.40;99.90
12089;DHT22;6107;49.078;8.578;2023-04-29T07:42:03;13.60;99.90
12089;DHT22;6107;49.078;8.578;2023-04-29T07:44:29;13.70;99.90
12089;DHT22;6107;49.078;8.578;2023-04-29T07:46:54;13.80;99.90
12089;DHT22;6107;49.078;8.578;2023-04-29T07:49:20;13.50;99.90
12089;DHT22;6107;49.078;8.578;2023-04-29T07:51:45;13.50;99.90
12089;DHT22;6107;49.078;8.578;2023-04-29T07:54:11;13.70;99.90
12089;DHT22;6107;49.078;8.578;2023-04-29T07:56:36;13.70;99.90
12089;DHT22;6107;49.078;8.578;2023-04-29T07:59:02;13.80;99.90
12089;DHT22;6107;49.078;8.578;2023-04-29T08:01:28;13.80;99.90
12089;DHT22;6107;49.078;8.578;2023-04-29T08:03:53;13.90;99.90
12089;DHT22;6107;49.078;8.578;2023-04-29T08:06:19;14.00;99.90
12089;DHT22;6107;49.078;8.578;2023-04-29T08:08:47;14.10;99.90
12089;DHT22;6107;49.078;8.578;2023-04-29T08:11:19;14.20;99.90
12089;DHT22;6107;49.078;8.578;2023-04-29T08:13:46;14.30;99.90
12089;DHT22;6107;49.078;8.578;2023-04-29T08:16:12;14.50;99.90
12089;DHT22;6107;49.078;8.578;2023-04-29T08:18:38;14.40;99.90
12089;DHT22;6107;49.078;8.578;2023-04-29T08:21:04;14.30;99.90
12089;DHT22;6107;49.078;8.578;2023-04-29T08:23:29;14.20;99.90
12089;DHT22;6107;49.078;8.578;2023-04-29T08:25:55;14.40;99.90
12089;DHT22;6107;49.078;8.578;2023-04-29T08:28:21;14.40;99.90
12089;DHT22;6107;49.078;8.578;2023-04-29T08:30:47;14.50;99.90
12089;DHT22;6107;49.078;8.578;2023-04-29T08:33:12;14.70;99.90
12089;DHT22;6107;49.078;8.578;2023-04-29T08:35:39;14.70;99.90
12089;DHT22;6107;49.078;8.578;2023-04-29T08:38:05;15.00;99.90
12089;DHT22;6107;49.078;8.578;2023-04-29T08:40:41;14.90;99.90
12089;DHT22;6107;49.078;8.578;2023-04-29T08:43:07;14.80;99.90
12089;DHT22;6107;49.078;8.578;2023-04-29T08:45:35;14.80;99.90
12089;DHT22;6107;49.078;8.578;2023-04-29T08:48:05;14.90;99.90
12089;DHT22;6107;49.078;8.578;2023-04-29T08:50:35;14.70;99.90
12089;DHT22;6107;49.078;8.578;2023-04-29T08:53:01;14.60;99.90
12089;DHT22;6107;49.078;8.578;2023-04-29T08:55:27;14.70;99.90
12089;DHT22;6107;49.078;8.578;2023-04-29T08:57:54;14.50;99.90
12089;DHT22;6107;49.078;8.578;2023-04-29T09:00:21;14.70;99.90
12089;DHT22;6107;49.078;8.578;2023-04-29T09:02:52;14.50;99.90
12089;DHT22;6107;49.078;8.578;2023-04-29T09:05:20;14.60;99.90
12089;DHT22;6107;49.078;8.578;2023-04-29T09:07:46;14.70;99.90
12089;DHT22;6107;49.078;8.578;2023-04-29T09:10:12;15.40;99.90
12089;DHT22;6107;49.078;8.578;2023-04-29T09:12:39;15.40;99.90
12089;DHT22;6107;49.078;8.578;2023-04-29T09:15:05;15.40;99.90
12089;DHT22;6107;49.078;8.578;2023-04-29T09:17:44;15.00;99.90
12089;DHT22;6107;49.078;8.578;2023-04-29T09:22:49;15.00;99.90
12089;DHT22;6107;49.078;8.578;2023-04-29T09:25:15;14.90;99.90
12089;DHT22;6107;49.078;8.578;2023-04-29T09:27:41;14.80;99.90
12089;DHT22;6107;49.078;8.578;2023-04-29T09:30:07;14.80;99.90
12089;DHT22;6107;49.078;8.578;2023-04-29T09:32:33;14.70;99.90
12089;DHT22;6107;49.078;8.578;2023-04-29T09:37:48;14.60;99.90
12089;DHT22;6107;49.078;8.578;2023-04-29T09:40:30;14.70;99.90
12089;DHT22;6107;49.078;8.578;2023-04-29T09:42:57;14.90;99.90
12089;DHT22;6107;49.078;8.578;2023-04-29T09:45:37;15.00;99.90
12089;DHT22;6107;49.078;8.578;2023-04-29T09:48:03;15.00;99.90
12089;DHT22;6107;49.078;8.578;2023-04-29T09:50:30;14.90;99.90
12089;DHT22;6107;49.078;8.578;2023-04-29T09:52:56;14.60;99.90
12089;DHT22;6107;49.078;8.578;2023-04-29T09:55:21;14.50;99.90
12089;DHT22;6107;49.078;8.578;2023-04-29T09:57:47;14.40;99.90
12089;DHT22;6107;49.078;8.578;2023-04-29T10:00:13;14.60;99.90
12089;DHT22;6107;49.078;8.578;2023-04-29T10:02:41;14.20;99.90
12089;DHT22;6107;49.078;8.578;2023-04-29T10:05:08;14.30;99.90
12089;DHT22;6107;49.078;8.578;2023-04-29T10:07:34;14.40;99.90
12089;DHT22;6107;49.078;8.578;2023-04-29T10:10:03;14.40;99.90
12089;DHT22;6107;49.078;8.578;2023-04-29T10:12:30;14.30;99.90
12089;DHT22;6107;49.078;8.578;2023-04-29T10:15:22;14.20;99.90
12089;DHT22;6107;49.078;8.578;2023-04-29T10:18:19;14.30;99.90
12089;DHT22;6107;49.078;8.578;2023-04-29T10:20:46;14.30;99.90
12089;DHT22;6107;49.078;8.578;2023-04-29T10:23:12;14.20;99.90
12089;DHT22;6107;49.078;8.578;2023-04-29T10:25:39;14.10;99.90
12089;DHT22;6107;49.078;8.578;2023-04-29T10:28:10;14.00;99.90
12089;DHT22;6107;49.078;8.578;2023-04-29T10:30:38;13.90;99.90
12089;DHT22;6107;49.078;8.578;2023-04-29T10:33:04;14.10;99.90
12089;DHT22;6107;49.078;8.578;2023-04-29T10:35:30;13.80;99.90
12089;DHT22;6107;49.078;8.578;2023-04-29T10:38:00;14.10;99.90
12089;DHT22;6107;49.078;8.578;2023-04-29T10:40:43;14.20;99.90
12089;DHT22;6107;49.078;8.578;2023-04-29T10:43:10;13.80;99.90
12089;DHT22;6107;49.078;8.578;2023-04-29T10:45:36;13.90;99.90
12089;DHT22;6107;49.078;8.578;2023-04-29T10:53:19;13.50;99.90
12089;DHT22;6107;49.078;8.578;2023-04-29T10:55:53;13.60;99.90
12089;DHT22;6107;49.078;8.578;2023-04-29T11:00:58;13.60;99.90
12089;DHT22;6107;49.078;8.578;2023-04-29T11:03:46;13.80;99.90
12089;DHT22;6107;49.078;8.578;2023-04-29T11:06:13;13.90;99.90
12089;DHT22;6107;49.078;8.578;2023-04-29T11:08:39;14.00;99.90
12089;DHT22;6107;49.078;8.578;2023-04-29T11:11:05;14.10;99.90
12089;DHT22;6107;49.078;8.578;2023-04-29T11:13:38;14.00;99.90
12089;DHT22;6107;49.078;8.578;2023-04-29T11:16:08;14.20;99.90
12089;DHT22;6107;49.078;8.578;2023-04-29T11:18:35;14.40;99.90
12089;DHT22;6107;49.078;8.578;2023-04-29T11:23:36;14.40;99.90
12089;DHT22;6107;49.078;8.578;2023-04-29T11:26:03;14.30;99.90
12089;DHT22;6107;49.078;8.578;2023-04-29T11:28:30;14.20;99.90
12089;DHT22;6107;49.078;8.578;2023-04-29T11:30:56;14.30;99.90
12089;DHT22;6107;49.078;8.578;2023-04-29T11:33:22;14.50;99.90
12089;DHT22;6107;49.078;8.578;2023-04-29T11:35:48;14.50;99.90
12089;DHT22;6107;49.078;8.578;2023-04-29T11:38:14;14.80;99.90
12089;DHT22;6107;49.078;8.578;2023-04-29T11:40:49;14.80;99.90
12089;DHT22;6107;49.078;8.578;2023-04-29T11:43:18;14.80;99.90
12089;DHT22;6107;49.078;8.578;2023-04-29T11:45:44;14.70;99.90
12089;DHT22;6107;49.078;8.578;2023-04-29T11:48:25;14.60;99.90
12089;DHT22;6107;49.078;8.578;2023-04-29T11:50:57;14.40;99.90
12089;DHT22;6107;49.078;8.578;2023-04-29T11:53:25;14.50;99.90
12089;DHT22;6107;49.078;8.578;2023-04-29T11:55:52;14.70;99.90
12089;DHT22;6107;49.078;8.578;2023-04-29T11:58:20;14.80;99.90
12089;DHT22;6107;49.078;8.578;2023-04-29T12:00:49;14.90;99.90
12089;DHT22;6107;49.078;8.578;2023-04-29T12:03:16;14.70;99.90
12089;DHT22;6107;49.078;8.578;2023-04-29T12:05:51;14.80;99.90
12089;DHT22;6107;49.078;8.578;2023-04-29T12:08:24;14.90;99.90
12089;DHT22;6107;49.078;8.578;2023-04-29T12:10:51;15.20;99.90
12089;DHT22;6107;49.078;8.578;2023-04-29T12:13:18;15.60;99.90
12089;DHT22;6107;49.078;8.578;2023-04-29T12:15:47;15.30;99.90
12089;DHT22;6107;49.078;8.578;2023-04-29T12:18:15;15.00;99.90
12089;DHT22;6107;49.078;8.578;2023-04-29T12:20:41;15.20;99.90
12089;DHT22;6107;49.078;8.578;2023-04-29T12:23:14;15.20;99.90
12089;DHT22;6107;49.078;8.578;2023-04-29T12:25:40;14.80;99.90
12089;DHT22;6107;49.078;8.578;2023-04-29T12:28:13;14.80;99.90
12089;DHT22;6107;49.078;8.578;2023-04-29T12:30:38;14.80;99.90
12089;DHT22;6107;49.078;8.578;2023-04-29T12:33:07;15.00;99.90
12089;DHT22;6107;49.078;8.578;2023-04-29T12:35:35;15.00;99.90
12089;DHT22;6107;49.078;8.578;2023-04-29T12:38:01;15.10;99.90
12089;DHT22;6107;49.078;8.578;2023-04-29T12:40:27;14.90;99.90
12089;DHT22;6107;49.078;8.578;2023-04-29T12:42:53;14.90;99.90
12089;DHT22;6107;49.078;8.578;2023-04-29T12:45:29;14.90;99.90
12089;DHT22;6107;49.078;8.578;2023-04-29T12:47:56;15.10;99.90
12089;DHT22;6107;49.078;8.578;2023-04-29T12:50:30;15.30;99.90
12089;DHT22;6107;49.078;8.578;2023-04-29T12:52:57;15.30;99.90
12089;DHT22;6107;49.078;8.578;2023-04-29T12:55:23;15.10;99.90
12089;DHT22;6107;49.078;8.578;2023-04-29T12:57:48;15.30;99.90
12089;DHT22;6107;49.078;8.578;2023-04-29T13:00:14;15.40;99.90
12089;DHT22;6107;49.078;8.578;2023-04-29T13:02:40;15.80;99.90
12089;DHT22;6107;49.078;8.578;2023-04-29T13:05:06;16.00;99.90
12089;DHT22;6107;49.078;8.578;2023-04-29T13:07:32;15.90;99.90
12089;DHT22;6107;49.078;8.578;2023-04-29T13:09:57;15.50;99.90
12089;DHT22;6107;49.078;8.578;2023-04-29T13:12:23;15.40;99.90
12089;DHT22;6107;49.078;8.578;2023-04-29T13:14:48;15.40;99.90
12089;DHT22;6107;49.078;8.578;2023-04-29T13:17:14;15.30;99.90
12089;DHT22;6107;49.078;8.578;2023-04-29T13:19:39;15.40;99.90
12089;DHT22;6107;49.078;8.578;2023-04-29T13:22:05;15.30;99.90
12089;DHT22;6107;49.078;8.578;2023-04-29T13:24:30;15.60;99.90
12089;DHT22;6107;49.078;8.578;2023-04-29T13:26:57;15.70;99.90
12089;DHT22;6107;49.078;8.578;2023-04-29T13:29:22;16.00;99.90
12089;DHT22;6107;49.078;8.578;2023-04-29T13:31:48;15.90;99.90
12089;DHT22;6107;49.078;8.578;2023-04-29T13:34:14;15.90;99.90
12089;DHT22;6107;49.078;8.578;2023-04-29T13:36:39;15.60;99.90
12089;DHT22;6107;49.078;8.578;2023-04-29T13:39:05;15.50;99.90
12089;DHT22;6107;49.078;8.578;2023-04-29T13:41:30;15.50;99.90
12089;DHT22;6107;49.078;8.578;2023-04-29T13:43:56;15.80;99.90
12089;DHT22;6107;49.078;8.578;2023-04-29T13:46:22;15.80;99.90
12089;DHT22;6107;49.078;8.578;2023-04-29T13:48:47;15.80;99.90
12089;DHT22;6107;49.078;8.578;2023-04-29T13:51:13;15.80;99.90
12089;DHT22;6107;49.078;8.578;2023-04-29T13:53:38;15.70;99.90
12089;DHT22;6107;49.078;8.578;2023-04-29T13:56:04;15.70;99.90
12089;DHT22;6107;49.078;8.578;2023-04-29T13:58:30;15.30;99.90
12089;DHT22;6107;49.078;8.578;2023-04-29T14:00:55;15.50;99.90
12089;DHT22;6107;49.078;8.578;2023-04-29T14:03:21;15.70;99.90
12089;DHT22;6107;49.078;8.578;2023-04-29T14:05:46;15.70;99.90
12089;DHT22;6107;49.078;8.578;2023-04-29T14:08:12;15.60;99.90
12089;DHT22;6107;49.078;8.578;2023-04-29T14:10:38;15.90;99.90
12089;DHT22;6107;49.078;8.578;2023-04-29T14:13:04;15.60;99.90
12089;DHT22;6107;49.078;8.578;2023-04-29T14:15:29;15.30;99.90
12089;DHT22;6107;49.078;8.578;2023-04-29T14:17:55;15.30;99.90
12089;DHT22;6107;49.078;8.578;2023-04-29T14:20:21;15.30;99.90
12089;DHT22;6107;49.078;8.578;2023-04-29T14:22:46;15.20;99.90
12089;DHT22;6107;49.078;8.578;2023-04-29T14:25:12;15.40;99.90
12089;DHT22;6107;49.078;8.578;2023-04-29T14:27:37;15.60;99.90
12089;DHT22;6107;49.078;8.578;2023-04-29T14:30:03;15.90;99.90
12089;DHT22;6107;49.078;8.578;2023-04-29T14:32:29;16.50;99.90
12089;DHT22;6107;49.078;8.578;2023-04-29T14:34:55;15.70;99.90
12089;DHT22;6107;49.078;8.578;2023-04-29T14:37:20;15.50;99.90
12089;DHT22;6107;49.078;8.578;2023-04-29T14:39:46;15.40;99.90
12089;DHT22;6107;49.078;8.578;2023-04-29T14:42:11;15.40;99.90
12089;DHT22;6107;49.078;8.578;2023-04-29T14:44:37;15.30;99.90
12089;DHT22;6107;49.078;8.578;2023-04-29T14:47:03;15.50;99.90
12089;DHT22;6107;49.078;8.578;2023-04-29T14:49:29;15.60;99.90
12089;DHT22;6107;49.078;8.578;2023-04-29T14:51:54;15.40;99.90
12089;DHT22;6107;49.078;8.578;2023-04-29T14:54:20;15.30;99.90
12089;DHT22;6107;49.078;8.578;2023-04-29T14:56:45;15.40;99.90
12089;DHT22;6107;49.078;8.578;2023-04-29T14:59:11;16.60;99.90
12089;DHT22;6107;49.078;8.578;2023-04-29T15:01:36;15.70;99.90
12089;DHT22;6107;49.078;8.578;2023-04-29T15:04:04;15.60;99.90
12089;DHT22;6107;49.078;8.578;2023-04-29T15:06:30;15.50;99.90
12089;DHT22;6107;49.078;8.578;2023-04-29T15:08:56;16.20;99.90
12089;DHT22;6107;49.078;8.578;2023-04-29T15:11:22;15.60;99.90
12089;DHT22;6107;49.078;8.578;2023-04-29T15:13:48;16.10;99.90
12089;DHT22;6107;49.078;8.578;2023-04-29T15:16:14;15.70;99.90
12089;DHT22;6107;49.078;8.578;2023-04-29T15:18:39;15.30;99.90
12089;DHT22;6107;49.078;8.578;2023-04-29T15:21:05;15.10;99.90
12089;DHT22;6107;49.078;8.578;2023-04-29T15:23:31;15.30;99.90
12089;DHT22;6107;49.078;8.578;2023-04-29T15:25:57;15.30;99.90
12089;DHT22;6107;49.078;8.578;2023-04-29T15:28:23;15.00;99.90
12089;DHT22;6107;49.078;8.578;2023-04-29T15:30:50;15.00;99.90
12089;DHT22;6107;49.078;8.578;2023-04-29T15:33:15;15.50;99.90
12089;DHT22;6107;49.078;8.578;2023-04-29T15:35:41;15.40;99.90
12089;DHT22;6107;49.078;8.578;2023-04-29T15:38:06;15.30;99.90
12089;DHT22;6107;49.078;8.578;2023-04-29T15:40:32;15.10;99.90
12089;DHT22;6107;49.078;8.578;2023-04-29T15:42:58;15.70;99.90
12089;DHT22;6107;49.078;8.578;2023-04-29T15:45:23;15.50;99.90
12089;DHT22;6107;49.078;8.578;2023-04-29T15:47:49;15.60;99.90
12089;DHT22;6107;49.078;8.578;2023-04-29T15:50:15;15.20;99.90
12089;DHT22;6107;49.078;8.578;2023-04-29T15:52:40;16.00;99.90
12089;DHT22;6107;49.078;8.578;2023-04-29T15:55:06;15.60;99.90
12089;DHT22;6107;49.078;8.578;2023-04-29T15:57:32;15.70;99.90
12089;DHT22;6107;49.078;8.578;2023-04-29T15:59:59;15.60;99.90
12089;DHT22;6107;49.078;8.578;2023-04-29T16:02:24;16.00;99.90
12089;DHT22;6107;49.078;8.578;2023-04-29T16:04:50;15.90;99.90